Time,TemperatureF,DewpointF,PressureIn,WindDirection,WindDirectionDegrees,WindSpeedMPH,WindSpeedGustMPH,Humidity,HourlyPrecipIn,Conditions,Clouds,dailyrainin,SoftwareType,DateUTC
2013-01-16 00:02:00,23.9,16.8,29.79,North,0,0.0,14.3,74,0.00,,,0.00,WUHU216HW,2013-01-16 06:02:00,
2013-01-16 00:07:00,23.9,16.8,29.78,North,0,0.0,0.0,74,0.00,,,0.00,WUHU216HW,2013-01-16 06:07:00,
2013-01-16 00:12:00,23.8,16.7,29.77,North,0,0.0,0.0,74,0.00,,,0.00,WUHU216HW,2013-01-16 06:12:00,
2013-01-16 00:17:00,23.4,16.7,29.77,North,0,0.0,0.0,75,0.00,,,0.00,WUHU216HW,2013-01-16 06:17:00,
2013-01-16 00:22:00,23.2,16.5,29.77,North,0,0.0,0.0,75,0.00,,,0.00,WUHU216HW,2013-01-16 06:22:00,
2013-01-16 00:27:00,23.0,16.3,29.78,North,0,0.0,0.0,75,0.00,,,0.00,WUHU216HW,2013-01-16 06:27:00,
2013-01-16 00:32:00,23.0,16.6,29.76,North,0,0.0,0.0,76,0.00,,,0.00,WUHU216HW,2013-01-16 06:32:00,
2013-01-16 00:37:00,23.2,16.7,29.76,North,0,0.0,0.0,76,0.00,,,0.00,WUHU216HW,2013-01-16 06:37:00,
2013-01-16 00:42:00,23.2,16.7,29.75,North,0,0.0,0.0,76,0.00,,,0.00,WUHU216HW,2013-01-16 06:42:00,
2013-01-16 00:47:00,23.4,16.9,29.75,North,0,0.0,0.0,76,0.00,,,0.00,WUHU216HW,2013-01-16 06:47:00,
2013-01-16 00:52:00,23.4,16.7,29.74,North,0,0.0,0.0,75,0.00,,,0.00,WUHU216HW,2013-01-16 06:52:00,
2013-01-16 00:57:00,23.6,16.8,29.74,North,0,0.0,0.0,75,0.00,,,0.00,WUHU216HW,2013-01-16 06:57:00,
2013-01-16 01:02:00,23.8,17.0,29.74,North,0,0.0,0.0,75,0.00,,,0.00,WUHU216HW,2013-01-16 07:02:00,
2013-01-16 01:07:00,23.9,17.1,29.74,North,0,0.0,0.0,75,0.00,,,0.00,WUHU216HW,2013-01-16 07:07:00,
2013-01-16 01:12:00,24.1,17.0,29.74,North,0,0.0,0.0,74,0.00,,,0.00,WUHU216HW,2013-01-16 07:12:00,
2013-01-16 01:17:00,24.5,17.0,29.74,North,0,0.0,0.0,73,0.00,,,0.00,WUHU216HW,2013-01-16 07:17:00,
2013-01-16 01:22:00,24.7,17.2,29.73,North,0,0.0,0.0,73,0.00,,,0.00,WUHU216HW,2013-01-16 07:22:00,
2013-01-16 01:27:00,24.8,17.0,29.73,North,0,0.0,0.0,72,0.00,,,0.00,WUHU216HW,2013-01-16 07:27:00,
2013-01-16 01:32:00,24.8,17.0,29.72,North,0,0.0,0.0,72,0.00,,,0.00,WUHU216HW,2013-01-16 07:32:00,
2013-01-16 01:37:00,24.5,17.0,29.72,North,0,0.0,0.0,73,0.00,,,0.00,WUHU216HW,2013-01-16 07:37:00,
2013-01-16 01:42:00,24.5,17.0,29.71,North,0,0.0,0.0,73,0.00,,,0.00,WUHU216HW,2013-01-16 07:42:00,
2013-01-16 01:47:00,24.5,17.0,29.71,North,0,0.0,0.0,73,0.00,,,0.00,WUHU216HW,2013-01-16 07:47:00,
2013-01-16 01:52:00,24.7,17.2,29.71,North,0,0.0,0.0,73,0.00,,,0.00,WUHU216HW,2013-01-16 07:52:00,
2013-01-16 01:57:00,24.7,17.2,29.71,North,0,0.0,0.0,73,0.00,,,0.00,WUHU216HW,2013-01-16 07:57:00,
2013-01-16 02:02:00,24.7,17.2,29.71,North,0,0.0,0.0,73,0.00,,,0.00,WUHU216HW,2013-01-16 08:02:00,
2013-01-16 02:07:00,24.7,17.2,29.71,North,0,0.0,0.0,73,0.00,,,0.00,WUHU216HW,2013-01-16 08:07:00,
2013-01-16 02:12:00,24.7,17.2,29.70,North,0,0.0,0.0,73,0.00,,,0.00,WUHU216HW,2013-01-16 08:12:00,
2013-01-16 02:17:00,24.7,17.2,29.70,North,0,0.0,0.0,73,0.00,,,0.00,WUHU216HW,2013-01-16 08:17:00,
2013-01-16 02:22:00,24.7,17.2,29.70,North,0,0.0,0.0,73,0.00,,,0.00,WUHU216HW,2013-01-16 08:22:00,
2013-01-16 02:27:00,24.8,17.0,29.70,North,0,0.0,0.0,72,0.00,,,0.00,WUHU216HW,2013-01-16 08:27:00,
2013-01-16 02:32:00,25.0,17.2,29.70,North,0,0.0,0.0,72,0.00,,,0.00,WUHU216HW,2013-01-16 08:32:00,
2013-01-16 02:37:00,25.4,17.6,29.70,North,0,0.0,0.0,72,0.00,,,0.00,WUHU216HW,2013-01-16 08:37:00,
2013-01-16 02:42:00,25.6,17.7,29.68,North,0,0.0,0.0,72,0.00,,,0.00,WUHU216HW,2013-01-16 08:42:00,
2013-01-16 02:47:00,25.2,17.4,29.68,North,0,0.0,0.0,72,0.00,,,0.00,WUHU216HW,2013-01-16 08:47:00,
2013-01-16 02:52:00,25.0,17.6,29.68,North,0,0.0,0.0,73,0.00,,,0.00,WUHU216HW,2013-01-16 08:52:00,
2013-01-16 02:57:00,25.0,17.8,29.67,North,0,0.0,0.0,74,0.00,,,0.00,WUHU216HW,2013-01-16 08:57:00,
2013-01-16 03:02:00,25.0,17.8,29.67,North,0,0.0,0.0,74,0.00,,,0.00,WUHU216HW,2013-01-16 09:02:00,
2013-01-16 03:07:00,25.2,18.0,29.66,North,0,0.0,0.0,74,0.00,,,0.00,WUHU216HW,2013-01-16 09:07:00,
2013-01-16 03:12:00,25.4,17.9,29.66,North,0,0.0,0.0,73,0.00,,,0.00,WUHU216HW,2013-01-16 09:12:00,
2013-01-16 03:17:00,25.6,18.1,29.67,North,0,0.0,0.0,73,0.00,,,0.00,WUHU216HW,2013-01-16 09:17:00,
2013-01-16 03:22:00,25.6,18.1,29.66,North,0,0.0,0.0,73,0.00,,,0.00,WUHU216HW,2013-01-16 09:22:00,
2013-01-16 03:27:00,25.7,18.3,29.66,North,0,0.0,0.0,73,0.00,,,0.00,WUHU216HW,2013-01-16 09:27:00,
2013-01-16 03:32:00,25.7,18.5,29.66,North,0,0.0,0.0,74,0.00,,,0.00,WUHU216HW,2013-01-16 09:32:00,
2013-01-16 03:37:00,25.9,18.7,29.65,North,0,0.0,0.0,74,0.00,,,0.00,WUHU216HW,2013-01-16 09:37:00,
2013-01-16 03:42:00,26.1,18.9,29.65,North,0,0.0,0.0,74,0.00,,,0.00,WUHU216HW,2013-01-16 09:42:00,
2013-01-16 03:47:00,26.3,19.4,29.65,SW,225,15.7,15.7,75,0.00,,,0.00,WUHU216HW,2013-01-16 09:47:00,
2013-01-16 03:52:00,26.3,20.0,29.65,North,0,0.0,15.7,77,0.00,,,0.00,WUHU216HW,2013-01-16 09:52:00,
2013-01-16 03:57:00,26.3,20.6,29.64,North,0,0.0,15.7,79,0.00,,,0.00,WUHU216HW,2013-01-16 09:57:00,
2013-01-16 04:02:00,26.1,20.8,29.64,North,0,0.0,0.0,80,0.00,,,0.00,WUHU216HW,2013-01-16 10:02:00,
2013-01-16 04:07:00,25.7,20.7,29.64,North,0,0.0,0.0,81,0.00,,,0.00,WUHU216HW,2013-01-16 10:07:00,
2013-01-16 04:12:00,25.6,20.5,29.64,North,0,0.0,0.0,81,0.00,,,0.00,WUHU216HW,2013-01-16 10:12:00,
2013-01-16 04:17:00,25.4,20.3,29.64,North,0,0.0,0.0,81,0.00,,,0.00,WUHU216HW,2013-01-16 10:17:00,
2013-01-16 04:22:00,25.6,20.5,29.64,North,0,0.0,0.0,81,0.00,,,0.00,WUHU216HW,2013-01-16 10:22:00,
2013-01-16 04:27:00,25.4,20.3,29.63,North,0,0.0,0.0,81,0.00,,,0.00,WUHU216HW,2013-01-16 10:27:00,
2013-01-16 04:32:00,25.6,20.5,29.64,North,0,0.0,0.0,81,0.00,,,0.00,WUHU216HW,2013-01-16 10:32:00,
2013-01-16 04:37:00,25.6,20.5,29.64,North,0,0.0,0.0,81,0.00,,,0.00,WUHU216HW,2013-01-16 10:37:00,
2013-01-16 04:42:00,25.6,20.3,29.64,North,0,0.0,0.0,80,0.00,,,0.00,WUHU216HW,2013-01-16 10:42:00,
2013-01-16 04:47:00,25.6,20.5,29.63,North,0,0.0,0.0,81,0.00,,,0.00,WUHU216HW,2013-01-16 10:47:00,
2013-01-16 04:52:00,25.6,20.3,29.63,North,0,0.0,0.0,80,0.00,,,0.00,WUHU216HW,2013-01-16 10:52:00,
2013-01-16 04:57:00,25.6,20.5,29.63,North,0,0.0,0.0,81,0.00,,,0.00,WUHU216HW,2013-01-16 10:57:00,
2013-01-16 05:02:00,25.6,20.8,29.63,North,0,0.0,0.0,82,0.00,,,0.00,WUHU216HW,2013-01-16 11:02:00,
2013-01-16 05:07:00,25.7,21.2,29.63,North,0,0.0,0.0,83,0.00,,,0.00,WUHU216HW,2013-01-16 11:07:00,
2013-01-16 05:12:00,26.3,22.1,29.63,North,0,0.0,0.0,84,0.00,,,0.00,WUHU216HW,2013-01-16 11:12:00,
2013-01-16 05:16:00,26.5,22.2,29.62,North,0,0.0,0.0,84,0.00,,,0.00,WUHU216HW,2013-01-16 11:16:00,
2013-01-16 05:21:00,27.0,22.8,29.63,North,0,0.0,0.0,84,0.00,,,0.00,WUHU216HW,2013-01-16 11:21:00,
2013-01-16 05:26:00,26.6,22.7,29.62,North,0,0.0,0.0,85,0.00,,,0.00,WUHU216HW,2013-01-16 11:26:00,
2013-01-16 05:31:00,27.0,23.0,29.62,North,0,0.0,0.0,85,0.00,,,0.00,WUHU216HW,2013-01-16 11:31:00,
2013-01-16 05:36:00,27.0,23.3,29.62,North,0,0.0,0.0,86,0.00,,,0.00,WUHU216HW,2013-01-16 11:36:00,
2013-01-16 05:41:00,27.0,23.6,29.62,North,0,0.0,0.0,87,0.00,,,0.00,WUHU216HW,2013-01-16 11:41:00,
2013-01-16 05:46:00,26.8,23.4,29.62,North,0,0.0,0.0,87,0.00,,,0.00,WUHU216HW,2013-01-16 11:46:00,
2013-01-16 05:51:00,27.0,24.0,29.63,North,0,0.0,0.0,88,0.00,,,0.00,WUHU216HW,2013-01-16 11:51:00,
2013-01-16 05:56:00,27.0,24.0,29.62,North,0,0.0,0.0,88,0.00,,,0.00,WUHU216HW,2013-01-16 11:56:00,
2013-01-16 06:01:00,27.0,24.0,29.62,North,0,0.0,0.0,88,0.00,,,0.00,WUHU216HW,2013-01-16 12:01:00,
2013-01-16 06:06:00,27.0,24.2,29.63,North,0,0.0,0.0,89,0.00,,,0.00,WUHU216HW,2013-01-16 12:06:00,
2013-01-16 06:11:00,26.8,24.3,29.62,North,0,0.0,0.0,90,0.00,,,0.00,WUHU216HW,2013-01-16 12:11:00,
2013-01-16 06:16:00,26.8,24.3,29.63,North,0,0.0,0.0,90,0.00,,,0.00,WUHU216HW,2013-01-16 12:16:00,
2013-01-16 06:21:00,26.8,24.3,29.63,North,0,0.0,0.0,90,0.00,,,0.00,WUHU216HW,2013-01-16 12:21:00,
2013-01-16 06:26:00,27.0,24.5,29.63,WSW,248,10.5,10.5,90,0.00,,,0.00,WUHU216HW,2013-01-16 12:26:00,
2013-01-16 06:31:00,27.4,24.8,29.63,North,0,0.0,10.5,90,0.00,,,0.00,WUHU216HW,2013-01-16 12:31:00,
2013-01-16 06:36:00,27.5,25.0,29.63,North,0,0.0,10.5,90,0.00,,,0.00,WUHU216HW,2013-01-16 12:36:00,
2013-01-16 06:41:00,27.5,24.8,29.63,North,0,0.0,0.0,89,0.00,,,0.00,WUHU216HW,2013-01-16 12:41:00,
2013-01-16 06:46:00,27.7,24.9,29.63,North,0,0.0,0.0,89,0.00,,,0.00,WUHU216HW,2013-01-16 12:46:00,
2013-01-16 06:51:00,27.5,25.0,29.63,North,0,0.0,0.0,90,0.00,,,0.00,WUHU216HW,2013-01-16 12:51:00,
2013-01-16 06:56:00,27.5,25.3,29.63,North,0,0.0,0.0,91,0.00,,,0.00,WUHU216HW,2013-01-16 12:56:00,
2013-01-16 07:01:00,27.7,25.5,29.63,North,0,0.0,0.0,91,0.00,,,0.00,WUHU216HW,2013-01-16 13:01:00,
2013-01-16 07:06:00,27.7,25.5,29.63,North,0,0.0,0.0,91,0.00,,,0.00,WUHU216HW,2013-01-16 13:06:00,
2013-01-16 07:11:00,28.1,25.8,29.63,North,0,0.0,0.0,91,0.00,,,0.00,WUHU216HW,2013-01-16 13:11:00,
2013-01-16 07:16:00,28.1,25.8,29.63,North,0,0.0,0.0,91,0.00,,,0.00,WUHU216HW,2013-01-16 13:16:00,
2013-01-16 07:21:00,28.1,25.8,29.63,North,0,0.0,0.0,91,0.00,,,0.00,WUHU216HW,2013-01-16 13:21:00,
2013-01-16 07:26:00,28.3,26.0,29.63,North,0,0.0,0.0,91,0.00,,,0.00,WUHU216HW,2013-01-16 13:26:00,
2013-01-16 07:31:00,28.4,26.2,29.63,North,0,0.0,0.0,91,0.00,,,0.00,WUHU216HW,2013-01-16 13:31:00,
2013-01-16 07:36:00,28.4,26.2,29.63,North,0,0.0,0.0,91,0.00,,,0.00,WUHU216HW,2013-01-16 13:36:00,
2013-01-16 07:41:00,28.6,26.1,29.64,North,0,0.0,0.0,90,0.00,,,0.00,WUHU216HW,2013-01-16 13:41:00,
2013-01-16 07:46:00,28.6,26.4,29.64,North,0,0.0,0.0,91,0.00,,,0.00,WUHU216HW,2013-01-16 13:46:00,
2013-01-16 07:51:00,29.2,26.6,29.65,North,0,0.0,0.0,90,0.00,,,0.00,WUHU216HW,2013-01-16 13:51:00,
2013-01-16 07:56:00,29.3,26.6,29.64,North,0,0.0,0.0,89,0.00,,,0.00,WUHU216HW,2013-01-16 13:56:00,
2013-01-16 08:01:00,29.3,26.6,29.64,North,0,0.0,0.0,89,0.00,,,0.00,WUHU216HW,2013-01-16 14:01:00,
2013-01-16 08:06:00,29.2,26.6,29.65,North,0,0.0,0.0,90,0.00,,,0.00,WUHU216HW,2013-01-16 14:06:00,
2013-01-16 08:11:00,29.2,26.6,29.66,North,0,0.0,0.0,90,0.00,,,0.00,WUHU216HW,2013-01-16 14:11:00,
2013-01-16 08:16:00,29.2,26.9,29.66,North,0,0.0,0.0,91,0.00,,,0.00,WUHU216HW,2013-01-16 14:16:00,
2013-01-16 08:21:00,29.2,26.6,29.66,North,0,0.0,0.0,90,0.00,,,0.00,WUHU216HW,2013-01-16 14:21:00,
2013-01-16 08:26:00,29.2,26.9,29.66,North,0,0.0,0.0,91,0.00,,,0.00,WUHU216HW,2013-01-16 14:26:00,
2013-01-16 08:31:00,29.5,27.3,29.66,North,0,0.0,0.0,91,0.00,,,0.00,WUHU216HW,2013-01-16 14:31:00,
2013-01-16 08:36:00,29.5,27.3,29.66,North,0,0.0,0.0,91,0.00,,,0.00,WUHU216HW,2013-01-16 14:36:00,
2013-01-16 08:41:00,29.5,27.3,29.66,North,0,0.0,0.0,91,0.00,,,0.00,WUHU216HW,2013-01-16 14:41:00,
2013-01-16 08:46:00,29.7,27.5,29.66,North,0,0.0,0.0,91,0.00,,,0.00,WUHU216HW,2013-01-16 14:46:00,
2013-01-16 08:51:00,30.1,27.8,29.67,North,0,0.0,0.0,91,0.00,,,0.00,WUHU216HW,2013-01-16 14:51:00,
2013-01-16 08:56:00,30.4,27.9,29.67,North,0,0.0,0.0,90,0.00,,,0.00,WUHU216HW,2013-01-16 14:56:00,
2013-01-16 09:01:00,30.6,28.1,29.67,North,0,0.0,0.0,90,0.00,,,0.00,WUHU216HW,2013-01-16 15:01:00,
2013-01-16 09:06:00,31.0,28.4,29.67,North,0,0.0,0.0,90,0.00,,,0.00,WUHU216HW,2013-01-16 15:06:00,
2013-01-16 09:11:00,31.3,28.5,29.67,North,0,0.0,0.0,89,0.00,,,0.00,WUHU216HW,2013-01-16 15:11:00,
2013-01-16 09:16:00,31.7,29.2,29.67,North,0,0.0,0.0,90,0.00,,,0.00,WUHU216HW,2013-01-16 15:16:00,
2013-01-16 09:21:00,31.3,28.8,29.67,North,0,0.0,0.0,90,0.00,,,0.00,WUHU216HW,2013-01-16 15:21:00,
2013-01-16 09:26:00,31.3,28.5,29.66,North,0,0.0,0.0,89,0.00,,,0.00,WUHU216HW,2013-01-16 15:26:00,
2013-01-16 09:31:00,31.7,28.9,29.67,North,0,0.0,0.0,89,0.00,,,0.00,WUHU216HW,2013-01-16 15:31:00,
2013-01-16 09:36:00,32.4,29.5,29.67,North,0,0.0,0.0,89,0.00,,,0.00,WUHU216HW,2013-01-16 15:36:00,
2013-01-16 09:41:00,32.8,29.9,29.68,North,0,0.0,0.0,89,0.00,,,0.00,WUHU216HW,2013-01-16 15:41:00,
2013-01-16 09:46:00,32.9,30.1,29.68,North,0,0.0,0.0,89,0.00,,,0.00,WUHU216HW,2013-01-16 15:46:00,
2013-01-16 09:51:00,33.1,30.3,29.68,North,0,0.0,0.0,89,0.00,,,0.00,WUHU216HW,2013-01-16 15:51:00,
2013-01-16 09:56:00,33.3,30.3,29.68,North,0,0.0,0.0,89,0.00,,,0.00,WUHU216HW,2013-01-16 15:56:00,
2013-01-16 10:01:00,33.5,30.2,29.68,North,0,0.0,0.0,88,0.00,,,0.00,WUHU216HW,2013-01-16 16:01:00,
2013-01-16 10:06:00,33.5,30.2,29.68,North,0,0.0,0.0,88,0.00,,,0.00,WUHU216HW,2013-01-16 16:06:00,
2013-01-16 10:11:00,33.8,30.6,29.68,North,0,0.0,0.0,88,0.00,,,0.00,WUHU216HW,2013-01-16 16:11:00,
2013-01-16 10:16:00,34.4,31.2,29.68,North,0,0.0,0.0,88,0.00,,,0.00,WUHU216HW,2013-01-16 16:16:00,
2013-01-16 10:21:00,35.1,31.2,29.68,North,0,0.0,0.0,86,0.00,,,0.00,WUHU216HW,2013-01-16 16:21:00,
2013-01-16 10:26:00,35.6,31.2,29.68,North,0,0.0,0.0,84,0.00,,,0.00,WUHU216HW,2013-01-16 16:26:00,
2013-01-16 10:31:00,36.0,31.6,29.69,North,0,0.0,0.0,84,0.00,,,0.00,WUHU216HW,2013-01-16 16:31:00,
2013-01-16 10:36:00,36.2,31.1,29.70,North,0,0.0,0.0,82,0.00,,,0.00,WUHU216HW,2013-01-16 16:36:00,
2013-01-16 10:41:00,36.2,31.1,29.70,North,0,0.0,0.0,82,0.00,,,0.00,WUHU216HW,2013-01-16 16:41:00,
2013-01-16 10:46:00,36.5,31.2,29.70,North,0,0.0,0.0,81,0.00,,,0.00,WUHU216HW,2013-01-16 16:46:00,
2013-01-16 10:51:00,36.7,31.1,29.71,North,0,0.0,0.0,80,0.00,,,0.00,WUHU216HW,2013-01-16 16:51:00,
2013-01-16 10:56:00,36.9,31.0,29.71,North,0,0.0,0.0,79,0.00,,,0.00,WUHU216HW,2013-01-16 16:56:00,
2013-01-16 11:01:00,36.9,31.0,29.71,North,0,0.0,0.0,79,0.00,,,0.00,WUHU216HW,2013-01-16 17:01:00,
2013-01-16 11:06:00,37.1,30.9,29.71,North,0,0.0,0.0,78,0.00,,,0.00,WUHU216HW,2013-01-16 17:06:00,
2013-01-16 11:11:00,37.1,30.5,29.71,North,0,0.0,0.0,77,0.00,,,0.00,WUHU216HW,2013-01-16 17:11:00,
2013-01-16 11:16:00,36.9,30.3,29.71,North,0,0.0,0.0,77,0.00,,,0.00,WUHU216HW,2013-01-16 17:16:00,
2013-01-16 11:21:00,36.7,29.5,29.71,North,0,0.0,0.0,75,0.00,,,0.00,WUHU216HW,2013-01-16 17:21:00,
2013-01-16 11:26:00,36.5,29.0,29.71,North,0,0.0,0.0,74,0.00,,,0.00,WUHU216HW,2013-01-16 17:26:00,
2013-01-16 11:31:00,36.4,28.5,29.71,North,0,0.0,0.0,73,0.00,,,0.00,WUHU216HW,2013-01-16 17:31:00,
2013-01-16 11:36:00,36.5,28.4,29.72,North,0,0.0,0.0,72,0.00,,,0.00,WUHU216HW,2013-01-16 17:36:00,
2013-01-16 11:41:00,36.5,27.7,29.72,North,0,0.0,0.0,70,0.00,,,0.00,WUHU216HW,2013-01-16 17:41:00,
2013-01-16 11:46:00,36.7,27.6,29.72,North,0,0.0,0.0,69,0.00,,,0.00,WUHU216HW,2013-01-16 17:46:00,
2013-01-16 11:51:00,36.7,27.2,29.72,North,0,0.0,0.0,68,0.00,,,0.00,WUHU216HW,2013-01-16 17:51:00,
2013-01-16 11:56:00,36.4,27.2,29.72,North,0,0.0,0.0,69,0.00,,,0.00,WUHU216HW,2013-01-16 17:56:00,
2013-01-16 12:01:00,36.2,27.4,29.72,North,0,0.0,0.0,70,0.00,,,0.00,WUHU216HW,2013-01-16 18:01:00,
2013-01-16 12:06:00,35.6,26.1,29.72,North,0,0.0,0.0,68,0.00,,,0.00,WUHU216HW,2013-01-16 18:06:00,
2013-01-16 12:11:00,35.6,26.1,29.73,North,0,0.0,0.0,68,0.00,,,0.00,WUHU216HW,2013-01-16 18:11:00,
2013-01-16 12:16:00,35.6,25.7,29.73,North,0,0.0,0.0,67,0.00,,,0.00,WUHU216HW,2013-01-16 18:16:00,
2013-01-16 12:21:00,34.9,26.1,29.73,North,0,0.0,0.0,70,0.00,,,0.00,WUHU216HW,2013-01-16 18:21:00,
2013-01-16 12:26:00,34.6,26.1,29.73,North,0,0.0,0.0,71,0.00,,,0.00,WUHU216HW,2013-01-16 18:26:00,
2013-01-16 12:31:00,34.2,25.8,29.73,North,0,0.0,0.0,71,0.00,,,0.00,WUHU216HW,2013-01-16 18:31:00,
2013-01-16 12:36:00,34.2,26.4,29.74,North,0,0.0,0.0,73,0.00,,,0.00,WUHU216HW,2013-01-16 18:36:00,
2013-01-16 12:41:00,33.8,26.3,29.74,North,0,0.0,0.0,74,0.00,,,0.00,WUHU216HW,2013-01-16 18:41:00,
2013-01-16 12:46:00,33.8,26.6,29.74,North,0,0.0,0.0,75,0.00,,,0.00,WUHU216HW,2013-01-16 18:46:00,
2013-01-16 12:51:00,33.7,26.8,29.74,North,0,0.0,0.0,76,0.00,,,0.00,WUHU216HW,2013-01-16 18:51:00,
2013-01-16 12:56:00,33.5,26.6,29.75,North,0,0.0,0.0,76,0.00,,,0.00,WUHU216HW,2013-01-16 18:56:00,
2013-01-16 13:01:00,33.3,27.1,29.75,North,0,0.0,0.0,78,0.00,,,0.00,WUHU216HW,2013-01-16 19:01:00,
2013-01-16 13:06:00,32.9,27.1,29.76,North,0,0.0,0.0,79,0.00,,,0.00,WUHU216HW,2013-01-16 19:06:00,
2013-01-16 13:11:00,32.8,27.3,29.76,North,0,0.0,0.0,80,0.00,,,0.00,WUHU216HW,2013-01-16 19:11:00,
2013-01-16 13:16:00,32.6,27.5,29.76,North,0,0.0,0.0,81,0.00,,,0.00,WUHU216HW,2013-01-16 19:16:00,
2013-01-16 13:21:00,32.0,27.6,29.76,North,0,0.0,0.0,83,0.00,,,0.00,WUHU216HW,2013-01-16 19:21:00,
2013-01-16 13:26:00,31.5,27.5,29.76,North,0,0.0,0.0,85,0.00,,,0.00,WUHU216HW,2013-01-16 19:26:00,
2013-01-16 13:31:00,31.5,27.5,29.76,North,0,0.0,0.0,85,0.00,,,0.00,WUHU216HW,2013-01-16 19:31:00,
2013-01-16 13:36:00,31.7,27.7,29.76,North,0,0.0,0.0,85,0.00,,,0.00,WUHU216HW,2013-01-16 19:36:00,
2013-01-16 13:41:00,31.7,27.7,29.77,North,0,0.0,0.0,85,0.00,,,0.00,WUHU216HW,2013-01-16 19:41:00,
2013-01-16 13:46:00,31.5,27.8,29.77,North,0,0.0,0.0,86,0.00,,,0.00,WUHU216HW,2013-01-16 19:46:00,
2013-01-16 13:51:00,31.3,27.1,29.77,North,0,0.0,0.0,84,0.00,,,0.00,WUHU216HW,2013-01-16 19:51:00,
2013-01-16 13:56:00,31.5,27.3,29.77,North,0,0.0,0.0,84,0.00,,,0.00,WUHU216HW,2013-01-16 19:56:00,
2013-01-16 14:01:00,31.3,27.4,29.77,North,0,0.0,0.0,85,0.00,,,0.00,WUHU216HW,2013-01-16 20:01:00,
2013-01-16 14:06:00,31.1,27.2,29.78,WSW,248,8.5,8.5,85,0.00,,,0.00,WUHU216HW,2013-01-16 20:06:00,
2013-01-16 14:11:00,31.1,26.9,29.78,North,0,5.4,8.5,84,0.00,,,0.00,WUHU216HW,2013-01-16 20:11:00,
2013-01-16 14:16:00,31.0,26.7,29.79,NNW,338,3.4,8.5,84,0.00,,,0.00,WUHU216HW,2013-01-16 20:16:00,
2013-01-16 14:21:00,30.8,26.6,29.79,North,0,3.8,6.5,84,0.00,,,0.00,WUHU216HW,2013-01-16 20:21:00,
2013-01-16 14:26:00,30.6,26.1,29.80,NNW,338,6.7,7.6,83,0.00,,,0.00,WUHU216HW,2013-01-16 20:26:00,
2013-01-16 14:31:00,30.4,25.9,29.81,North,0,8.3,9.4,83,0.00,,,0.00,WUHU216HW,2013-01-16 20:31:00,
2013-01-16 14:36:00,29.9,25.0,29.81,NNW,338,6.3,11.6,82,0.00,,,0.00,WUHU216HW,2013-01-16 20:36:00,
2013-01-16 14:41:00,29.9,25.4,29.81,NW,315,11.4,11.6,83,0.00,,,0.00,WUHU216HW,2013-01-16 20:41:00,
2013-01-16 14:46:00,29.9,25.4,29.81,NNW,338,5.4,11.6,83,0.00,,,0.00,WUHU216HW,2013-01-16 20:46:00,
2013-01-16 14:51:00,29.9,25.4,29.82,NNW,338,6.0,11.6,83,0.00,,,0.00,WUHU216HW,2013-01-16 20:51:00,
2013-01-16 14:56:00,29.7,24.8,29.82,North,0,7.6,10.1,82,0.00,,,0.00,WUHU216HW,2013-01-16 20:56:00,
2013-01-16 15:01:00,29.7,24.8,29.82,NW,315,6.3,10.1,82,0.00,,,0.00,WUHU216HW,2013-01-16 21:01:00,
2013-01-16 15:06:00,29.7,24.8,29.83,NNE,23,4.7,10.3,82,0.00,,,0.00,WUHU216HW,2013-01-16 21:06:00,
2013-01-16 15:11:00,29.5,24.7,29.83,North,0,7.8,10.5,82,0.00,,,0.00,WUHU216HW,2013-01-16 21:11:00,
2013-01-16 15:16:00,29.2,24.3,29.83,NNW,338,2.5,10.5,82,0.00,,,0.00,WUHU216HW,2013-01-16 21:16:00,
2013-01-16 15:21:00,29.0,24.1,29.84,North,0,7.6,8.5,82,0.00,,,0.00,WUHU216HW,2013-01-16 21:21:00,
2013-01-16 15:26:00,29.0,23.9,29.84,North,0,4.7,7.6,81,0.00,,,0.00,WUHU216HW,2013-01-16 21:26:00,
2013-01-16 15:31:00,29.2,24.0,29.85,ENE,68,5.8,7.6,81,0.00,,,0.00,WUHU216HW,2013-01-16 21:31:00,
2013-01-16 15:36:00,29.0,23.3,29.86,North,0,6.9,9.6,79,0.00,,,0.00,WUHU216HW,2013-01-16 21:36:00,
2013-01-16 15:41:00,28.8,23.4,29.86,NNW,338,4.0,9.6,80,0.00,,,0.00,WUHU216HW,2013-01-16 21:41:00,
2013-01-16 15:46:00,28.8,23.1,29.86,NW,315,8.5,9.2,79,0.00,,,0.00,WUHU216HW,2013-01-16 21:46:00,
2013-01-16 15:51:00,28.8,23.1,29.87,North,0,6.5,9.4,79,0.00,,,0.00,WUHU216HW,2013-01-16 21:51:00,
2013-01-16 15:56:00,28.8,22.8,29.88,NNW,338,5.4,9.4,78,0.00,,,0.00,WUHU216HW,2013-01-16 21:56:00,
2013-01-16 16:01:00,28.8,22.5,29.88,NNW,338,8.9,8.9,77,0.00,,,0.00,WUHU216HW,2013-01-16 22:01:00,
2013-01-16 16:06:00,28.6,22.3,29.87,NW,315,6.0,8.9,77,0.00,,,0.00,WUHU216HW,2013-01-16 22:06:00,
2013-01-16 16:11:00,28.6,22.3,29.87,NW,315,5.4,7.8,77,0.00,,,0.00,WUHU216HW,2013-01-16 22:11:00,
2013-01-16 16:16:00,28.8,21.9,29.88,NNW,338,6.3,6.9,75,0.00,,,0.00,WUHU216HW,2013-01-16 22:16:00,
2013-01-16 16:21:00,29.9,23.2,29.89,NNW,338,7.4,7.4,76,0.00,,,0.00,WUHU216HW,2013-01-16 22:21:00,
2013-01-16 16:26:00,30.8,22.8,29.89,NW,315,9.2,9.2,72,0.00,,,0.00,WUHU216HW,2013-01-16 22:26:00,
2013-01-16 16:31:00,31.1,22.5,29.90,NNW,338,5.8,9.2,70,0.00,,,0.00,WUHU216HW,2013-01-16 22:31:00,
2013-01-16 16:36:00,31.1,22.1,29.91,North,0,4.5,6.3,69,0.00,,,0.00,WUHU216HW,2013-01-16 22:36:00,
2013-01-16 16:41:00,30.4,20.3,29.91,NNE,23,5.8,6.3,66,0.00,,,0.00,WUHU216HW,2013-01-16 22:41:00,
2013-01-16 16:46:00,30.2,20.2,29.92,North,0,0.0,5.8,66,0.00,,,0.00,WUHU216HW,2013-01-16 22:46:00,
2013-01-16 16:50:00,29.7,17.9,29.92,North,0,0.0,5.8,61,0.00,,,0.00,WUHU216HW,2013-01-16 22:50:00,
2013-01-16 16:55:00,29.3,17.2,29.93,North,0,0.0,0.0,60,0.00,,,0.00,WUHU216HW,2013-01-16 22:55:00,
2013-01-16 17:00:00,28.4,16.7,29.93,North,0,0.0,0.0,61,0.00,,,0.00,WUHU216HW,2013-01-16 23:00:00,
2013-01-16 17:05:00,27.7,16.0,29.94,North,0,0.0,0.0,61,0.00,,,0.00,WUHU216HW,2013-01-16 23:05:00,
2013-01-16 17:10:00,27.4,15.7,29.94,North,0,0.0,0.0,61,0.00,,,0.00,WUHU216HW,2013-01-16 23:10:00,
2013-01-16 17:15:00,27.0,15.7,29.94,North,0,0.0,0.0,62,0.00,,,0.00,WUHU216HW,2013-01-16 23:15:00,
2013-01-16 17:20:00,26.6,15.3,29.95,North,0,0.0,0.0,62,0.00,,,0.00,WUHU216HW,2013-01-16 23:20:00,
2013-01-16 17:25:00,26.3,14.9,29.95,North,0,0.0,0.0,62,0.00,,,0.00,WUHU216HW,2013-01-16 23:25:00,
2013-01-16 17:30:00,26.1,13.7,29.96,North,0,0.0,0.0,59,0.00,,,0.00,WUHU216HW,2013-01-16 23:30:00,
2013-01-16 17:35:00,25.7,13.3,29.96,North,0,0.0,0.0,59,0.00,,,0.00,WUHU216HW,2013-01-16 23:35:00,
2013-01-16 17:40:00,25.6,12.8,29.96,North,0,0.0,0.0,58,0.00,,,0.00,WUHU216HW,2013-01-16 23:40:00,
2013-01-16 17:45:00,25.4,11.3,29.96,North,0,0.0,0.0,55,0.00,,,0.00,WUHU216HW,2013-01-16 23:45:00,
2013-01-16 17:50:00,25.2,10.4,29.96,North,0,0.0,0.0,53,0.00,,,0.00,WUHU216HW,2013-01-16 23:50:00,
2013-01-16 17:55:00,24.8,9.6,29.96,North,0,0.0,0.0,52,0.00,,,0.00,WUHU216HW,2013-01-16 23:55:00,
2013-01-16 18:00:00,24.7,9.5,29.97,North,0,0.0,0.0,52,0.00,,,0.00,WUHU216HW,2013-01-17 00:00:00,
2013-01-16 18:05:00,24.5,8.9,29.98,North,0,0.0,0.0,51,0.00,,,0.00,WUHU216HW,2013-01-17 00:05:00,
2013-01-16 18:10:00,24.1,8.2,29.98,North,0,0.0,0.0,50,0.00,,,0.00,WUHU216HW,2013-01-17 00:10:00,
2013-01-16 18:15:00,24.1,7.2,29.98,North,0,0.0,0.0,48,0.00,,,0.00,WUHU216HW,2013-01-17 00:15:00,
2013-01-16 18:20:00,23.8,7.4,29.99,North,0,0.0,0.0,49,0.00,,,0.00,WUHU216HW,2013-01-17 00:20:00,
2013-01-16 18:25:00,23.4,7.0,29.98,North,0,0.0,0.0,49,0.00,,,0.00,WUHU216HW,2013-01-17 00:25:00,
2013-01-16 18:30:00,23.2,6.8,30.00,North,0,0.0,0.0,49,0.00,,,0.00,WUHU216HW,2013-01-17 00:30:00,
2013-01-16 18:35:00,23.0,7.6,30.00,North,0,0.0,0.0,51,0.00,,,0.00,WUHU216HW,2013-01-17 00:35:00,
2013-01-16 18:40:00,22.9,7.4,30.02,North,0,0.0,0.0,51,0.00,,,0.00,WUHU216HW,2013-01-17 00:40:00,
2013-01-16 18:45:00,22.7,6.8,30.02,North,0,0.0,0.0,50,0.00,,,0.00,WUHU216HW,2013-01-17 00:45:00,
2013-01-16 18:50:00,22.7,7.2,30.03,North,0,0.0,0.0,51,0.00,,,0.00,WUHU216HW,2013-01-17 00:50:00,
2013-01-16 18:55:00,22.5,7.5,30.04,North,0,0.0,0.0,52,0.00,,,0.00,WUHU216HW,2013-01-17 00:55:00,
2013-01-16 19:00:00,22.3,7.3,30.04,North,0,0.0,0.0,52,0.00,,,0.00,WUHU216HW,2013-01-17 01:00:00,
2013-01-16 19:05:00,22.1,7.6,30.05,North,0,0.0,0.0,53,0.00,,,0.00,WUHU216HW,2013-01-17 01:05:00,
2013-01-16 19:10:00,22.0,7.4,30.05,North,0,0.0,0.0,53,0.00,,,0.00,WUHU216HW,2013-01-17 01:10:00,
2013-01-16 19:15:00,22.0,7.7,30.05,North,0,0.0,0.0,54,0.00,,,0.00,WUHU216HW,2013-01-17 01:15:00,
2013-01-16 19:20:00,21.8,8.0,30.06,North,0,0.0,0.0,55,0.00,,,0.00,WUHU216HW,2013-01-17 01:20:00,
2013-01-16 19:25:00,21.6,7.8,30.07,North,0,0.0,0.0,55,0.00,,,0.00,WUHU216HW,2013-01-17 01:25:00,
2013-01-16 19:30:00,21.4,7.7,30.07,North,0,0.0,0.0,55,0.00,,,0.00,WUHU216HW,2013-01-17 01:30:00,
2013-01-16 19:35:00,21.2,7.5,30.07,North,0,0.0,0.0,55,0.00,,,0.00,WUHU216HW,2013-01-17 01:35:00,
2013-01-16 19:40:00,21.1,7.3,30.07,North,0,0.0,0.0,55,0.00,,,0.00,WUHU216HW,2013-01-17 01:40:00,
2013-01-16 19:45:00,20.9,7.1,30.07,North,0,0.0,0.0,55,0.00,,,0.00,WUHU216HW,2013-01-17 01:45:00,
2013-01-16 19:50:00,20.7,6.9,30.07,North,0,0.0,0.0,55,0.00,,,0.00,WUHU216HW,2013-01-17 01:50:00,
2013-01-16 19:55:00,20.5,6.8,30.07,North,0,0.0,0.0,55,0.00,,,0.00,WUHU216HW,2013-01-17 01:55:00,
2013-01-16 20:00:00,20.3,6.7,30.08,North,0,0.0,0.0,55,0.00,,,0.00,WUHU216HW,2013-01-17 02:00:00,
2013-01-16 20:05:00,20.3,6.7,30.08,North,0,0.0,0.0,55,0.00,,,0.00,WUHU216HW,2013-01-17 02:05:00,
2013-01-16 20:10:00,20.2,6.5,30.08,North,0,0.0,0.0,55,0.00,,,0.00,WUHU216HW,2013-01-17 02:10:00,
2013-01-16 20:15:00,20.0,6.3,30.08,North,0,0.0,0.0,55,0.00,,,0.00,WUHU216HW,2013-01-17 02:15:00,
2013-01-16 20:20:00,19.8,6.1,30.08,North,0,0.0,0.0,55,0.00,,,0.00,WUHU216HW,2013-01-17 02:20:00,
2013-01-16 20:25:00,19.8,6.1,30.08,North,0,0.0,0.0,55,0.00,,,0.00,WUHU216HW,2013-01-17 02:25:00,
2013-01-16 20:30:00,19.4,5.8,30.09,North,0,0.0,0.0,55,0.00,,,0.00,WUHU216HW,2013-01-17 02:30:00,
2013-01-16 20:35:00,19.4,6.1,30.09,North,0,0.0,0.0,56,0.00,,,0.00,WUHU216HW,2013-01-17 02:35:00,
2013-01-16 20:40:00,19.4,6.1,30.09,North,0,0.0,0.0,56,0.00,,,0.00,WUHU216HW,2013-01-17 02:40:00,
2013-01-16 20:45:00,19.3,6.4,30.09,North,0,0.0,0.0,57,0.00,,,0.00,WUHU216HW,2013-01-17 02:45:00,
2013-01-16 20:50:00,19.1,6.7,30.09,North,0,0.0,0.0,58,0.00,,,0.00,WUHU216HW,2013-01-17 02:50:00,
2013-01-16 20:55:00,18.9,6.5,30.09,North,0,0.0,0.0,58,0.00,,,0.00,WUHU216HW,2013-01-17 02:55:00,
2013-01-16 21:00:00,18.7,6.3,30.10,North,0,0.0,0.0,58,0.00,,,0.00,WUHU216HW,2013-01-17 03:00:00,
2013-01-16 21:05:00,18.7,6.3,30.10,North,0,0.0,0.0,58,0.00,,,0.00,WUHU216HW,2013-01-17 03:05:00,
2013-01-16 21:10:00,18.5,6.1,30.10,North,0,0.0,0.0,58,0.00,,,0.00,WUHU216HW,2013-01-17 03:10:00,
2013-01-16 21:15:00,18.4,6.4,30.11,North,0,0.0,0.0,59,0.00,,,0.00,WUHU216HW,2013-01-17 03:15:00,
2013-01-16 21:20:00,18.2,6.2,30.11,North,0,0.0,0.0,59,0.00,,,0.00,WUHU216HW,2013-01-17 03:20:00,
2013-01-16 21:25:00,18.2,6.2,30.11,North,0,0.0,0.0,59,0.00,,,0.00,WUHU216HW,2013-01-17 03:25:00,
2013-01-16 21:30:00,18.0,6.5,30.11,North,0,0.0,0.0,60,0.00,,,0.00,WUHU216HW,2013-01-17 03:30:00,
2013-01-16 21:35:00,17.8,6.3,30.11,North,0,0.0,0.0,60,0.00,,,0.00,WUHU216HW,2013-01-17 03:35:00,
2013-01-16 21:40:00,17.6,6.1,30.11,North,0,0.0,0.0,60,0.00,,,0.00,WUHU216HW,2013-01-17 03:40:00,
2013-01-16 21:45:00,17.5,6.3,30.11,North,0,0.0,0.0,61,0.00,,,0.00,WUHU216HW,2013-01-17 03:45:00,
2013-01-16 21:50:00,17.3,6.1,30.11,North,0,0.0,0.0,61,0.00,,,0.00,WUHU216HW,2013-01-17 03:50:00,
2013-01-16 21:55:00,17.3,6.5,30.12,North,0,0.0,0.0,62,0.00,,,0.00,WUHU216HW,2013-01-17 03:55:00,
2013-01-16 22:00:00,17.1,6.3,30.13,North,0,0.0,0.0,62,0.00,,,0.00,WUHU216HW,2013-01-17 04:00:00,
2013-01-16 22:05:00,16.9,6.4,30.12,North,0,0.0,0.0,63,0.00,,,0.00,WUHU216HW,2013-01-17 04:05:00,
2013-01-16 22:10:00,16.6,6.4,30.13,North,0,0.0,0.0,64,0.00,,,0.00,WUHU216HW,2013-01-17 04:10:00,
2013-01-16 22:15:00,16.2,6.0,30.13,North,0,0.0,0.0,64,0.00,,,0.00,WUHU216HW,2013-01-17 04:15:00,
2013-01-16 22:20:00,16.0,6.2,30.13,North,0,0.0,0.0,65,0.00,,,0.00,WUHU216HW,2013-01-17 04:20:00,
2013-01-16 22:25:00,15.7,6.2,30.13,North,0,0.0,0.0,66,0.00,,,0.00,WUHU216HW,2013-01-17 04:25:00,
2013-01-16 22:30:00,15.7,6.2,30.14,North,0,0.0,0.0,66,0.00,,,0.00,WUHU216HW,2013-01-17 04:30:00,
2013-01-16 22:35:00,15.5,6.0,30.15,North,0,0.0,0.0,66,0.00,,,0.00,WUHU216HW,2013-01-17 04:35:00,
2013-01-16 22:40:00,15.3,5.9,30.14,North,0,0.0,0.0,66,0.00,,,0.00,WUHU216HW,2013-01-17 04:40:00,
2013-01-16 22:45:00,15.1,5.4,30.14,North,0,0.0,0.0,65,0.00,,,0.00,WUHU216HW,2013-01-17 04:45:00,
2013-01-16 22:50:00,14.8,5.4,30.16,North,0,0.0,0.0,66,0.00,,,0.00,WUHU216HW,2013-01-17 04:50:00,
2013-01-16 22:55:00,14.6,4.9,30.16,North,0,0.0,0.0,65,0.00,,,0.00,WUHU216HW,2013-01-17 04:55:00,
2013-01-16 23:01:00,14.4,4.4,30.16,North,0,0.0,0.0,64,0.00,,,0.00,WUHU216HW,2013-01-17 05:01:00,
2013-01-16 23:03:00,14.2,4.6,30.16,WNW,293,5.8,5.8,65,0.00,,,0.00,WUHU216HW,2013-01-17 05:03:00,
2013-01-16 23:08:00,14.0,4.4,30.16,North,0,6.5,8.5,65,0.00,,,0.00,WUHU216HW,2013-01-17 05:08:00,
2013-01-16 23:13:00,13.9,4.2,30.17,NW,315,6.9,9.4,65,0.00,,,0.00,WUHU216HW,2013-01-17 05:13:00,
2013-01-16 23:18:00,13.7,3.7,30.17,NNW,338,6.3,9.4,64,0.00,,,0.00,WUHU216HW,2013-01-17 05:18:00,
2013-01-16 23:23:00,13.3,3.3,30.17,North,0,4.9,9.2,64,0.00,,,0.00,WUHU216HW,2013-01-17 05:23:00,
2013-01-16 23:28:00,13.3,3.3,30.17,NNW,338,3.4,9.2,64,0.00,,,0.00,WUHU216HW,2013-01-17 05:28:00,
2013-01-16 23:33:00,13.1,2.8,30.17,NW,315,5.8,6.7,63,0.00,,,0.00,WUHU216HW,2013-01-17 05:33:00,
2013-01-16 23:38:00,13.0,2.6,30.17,NW,315,4.7,6.7,63,0.00,,,0.00,WUHU216HW,2013-01-17 05:38:00,
2013-01-16 23:43:00,12.8,2.4,30.17,NW,315,2.9,5.8,63,0.00,,,0.00,WUHU216HW,2013-01-17 05:43:00,
2013-01-16 23:48:00,12.6,2.3,30.17,NW,315,8.3,8.3,63,0.00,,,0.00,WUHU216HW,2013-01-17 05:48:00,
2013-01-16 23:53:00,12.6,2.3,30.18,NNW,338,4.5,8.3,63,0.00,,,0.00,WUHU216HW,2013-01-17 05:53:00,
2013-01-16 23:58:00,12.4,2.1,30.18,NW,315,5.4,8.5,63,0.00,,,0.00,WUHU216HW,2013-01-17 05:58:00,